createdAt,value
2018-10-07T00:00:49.071Z,6.47
2018-10-07T00:03:17.223Z,5.07
2018-10-07T00:05:46.207Z,7.27
2018-10-07T00:08:14.358Z,6.03
2018-10-07T00:10:42.523Z,6.07
2018-10-07T00:13:10.687Z,6.60
2018-10-07T00:15:38.904Z,6.50
2018-10-07T00:18:07.083Z,4.67
2018-10-07T00:20:35.259Z,6.73
2018-10-07T00:23:03.418Z,4.70
2018-10-07T00:25:31.583Z,5.83
2018-10-07T00:27:59.740Z,5.50
2018-10-07T00:30:27.894Z,5.77
2018-10-07T00:32:56.051Z,5.73
2018-10-07T00:35:24.207Z,5.80
2018-10-07T00:37:52.999Z,5.37
2018-10-07T00:40:21.162Z,4.07
2018-10-07T00:42:49.342Z,4.87
2018-10-07T00:45:17.511Z,3.83
2018-10-07T00:47:45.687Z,5.57
2018-10-07T00:50:13.851Z,3.97
2018-10-07T00:52:42.084Z,5.53
2018-10-07T00:55:10.277Z,4.47
2018-10-07T00:57:38.472Z,5.53
2018-10-07T01:00:07.371Z,4.80
2018-10-07T01:02:35.551Z,7.03
2018-10-07T01:05:03.722Z,5.60
2018-10-07T01:07:31.895Z,6.50
2018-10-07T01:10:00.067Z,4.83
2018-10-07T01:12:28.248Z,6.80
2018-10-07T01:14:56.411Z,4.90
2018-10-07T01:17:24.591Z,5.17
2018-10-07T01:19:52.758Z,4.73
2018-10-07T01:22:21.355Z,3.80
2018-10-07T01:24:49.558Z,4.83
2018-10-07T01:27:17.746Z,4.47
2018-10-07T01:29:45.959Z,4.93
2018-10-07T01:32:14.148Z,4.60
2018-10-07T01:34:42.339Z,6.30
2018-10-07T01:37:10.518Z,3.87
2018-10-07T01:39:38.696Z,4.80
2018-10-07T01:42:06.862Z,4.17
2018-10-07T01:44:35.034Z,4.57
2018-10-07T01:47:03.210Z,4.53
2018-10-07T01:49:31.386Z,4.67
2018-10-07T01:51:59.571Z,4.90
2018-10-07T01:54:27.739Z,4.10
2018-10-07T01:56:55.919Z,5.00
2018-10-07T01:59:24.099Z,3.23
2018-10-07T02:01:52.263Z,5.77
2018-10-07T02:04:20.468Z,5.37
2018-10-07T02:06:48.691Z,3.77
2018-10-07T02:09:16.884Z,6.20
2018-10-07T02:11:45.055Z,3.50
2018-10-07T02:14:13.230Z,6.77
2018-10-07T02:16:41.682Z,4.43
2018-10-07T02:19:09.863Z,3.77
2018-10-07T02:21:38.031Z,6.43
2018-10-07T02:24:06.211Z,3.63
2018-10-07T02:26:34.381Z,3.77
2018-10-07T02:29:02.558Z,3.80
2018-10-07T02:31:30.727Z,4.57
2018-10-07T02:33:58.903Z,3.20
2018-10-07T02:36:27.071Z,3.90
2018-10-07T02:38:55.255Z,4.03
2018-10-07T02:41:23.447Z,3.33
2018-10-07T02:43:51.653Z,4.53
2018-10-07T02:46:19.824Z,6.63
2018-10-07T02:48:47.999Z,6.33
2018-10-07T02:51:16.155Z,3.73
2018-10-07T02:53:44.319Z,3.90
2018-10-07T02:56:12.482Z,3.83
2018-10-07T02:58:40.638Z,4.53
2018-10-07T03:01:08.794Z,4.40
2018-10-07T03:03:36.955Z,3.97
2018-10-07T03:06:05.118Z,4.63
2018-10-07T03:08:33.282Z,3.73
2018-10-07T03:11:01.436Z,4.20
2018-10-07T03:13:29.591Z,4.70
2018-10-07T03:15:57.738Z,4.03
2018-10-07T03:18:25.923Z,3.97
2018-10-07T03:20:54.128Z,4.00
2018-10-07T03:23:22.508Z,3.80
2018-10-07T03:25:50.670Z,4.30
2018-10-07T03:28:18.834Z,6.10
2018-10-07T03:30:46.990Z,3.97
2018-10-07T03:33:15.543Z,4.23
2018-10-07T03:35:43.695Z,3.47
2018-10-07T03:38:11.875Z,3.27
2018-10-07T03:40:40.059Z,3.20
2018-10-07T03:43:08.269Z,4.47
2018-10-07T03:45:36.442Z,4.07
2018-10-07T03:48:04.614Z,2.60
2018-10-07T03:50:32.790Z,3.50
2018-10-07T03:53:00.984Z,3.20
2018-10-07T03:55:29.206Z,4.43
2018-10-07T03:57:57.532Z,3.70
2018-10-07T04:00:25.990Z,3.50
2018-10-07T04:02:54.155Z,3.40
2018-10-07T04:05:22.327Z,2.70
2018-10-07T04:07:50.494Z,3.90
2018-10-07T04:10:18.699Z,2.10
2018-10-07T04:12:46.868Z,4.03
2018-10-07T04:15:15.042Z,3.97
2018-10-07T04:17:43.214Z,2.67
2018-10-07T04:20:11.498Z,4.00
2018-10-07T04:22:39.672Z,3.33
2018-10-07T04:25:07.850Z,2.60
2018-10-07T04:27:36.030Z,3.37
2018-10-07T04:30:04.325Z,3.30
2018-10-07T04:32:32.512Z,3.57
2018-10-07T04:35:00.690Z,2.70
2018-10-07T04:37:28.858Z,4.13
2018-10-07T04:39:57.140Z,3.20
2018-10-07T04:42:25.199Z,4.50
2018-10-07T04:44:53.360Z,2.90
2018-10-07T04:47:21.514Z,4.00
2018-10-07T04:49:49.678Z,3.00
2018-10-07T04:52:17.827Z,3.63
2018-10-07T04:54:46.012Z,3.73
2018-10-07T04:57:14.167Z,3.50
2018-10-07T04:59:42.335Z,3.47
2018-10-07T05:02:10.491Z,3.27
2018-10-07T05:04:38.648Z,3.50
2018-10-07T05:07:06.929Z,3.57
2018-10-07T05:09:35.449Z,3.63
2018-10-07T05:12:05.530Z,3.20
2018-10-07T05:14:33.646Z,4.30
2018-10-07T05:17:02.094Z,5.77
2018-10-07T05:19:30.263Z,3.63
2018-10-07T05:21:58.418Z,4.47
2018-10-07T05:24:26.566Z,3.40
2018-10-07T05:26:54.727Z,4.83
2018-10-07T05:29:22.883Z,4.00
2018-10-07T05:31:51.043Z,3.80
2018-10-07T05:34:19.209Z,4.63
2018-10-07T05:36:47.370Z,4.10
2018-10-07T05:39:15.523Z,5.43
2018-10-07T05:41:43.702Z,3.20
2018-10-07T05:44:11.882Z,4.57
2018-10-07T05:46:40.057Z,4.47
2018-10-07T05:49:08.256Z,3.83
2018-10-07T05:51:36.440Z,4.77
2018-10-07T05:54:04.615Z,4.10
2018-10-07T05:56:32.774Z,3.73
2018-10-07T05:59:00.932Z,3.73
2018-10-07T06:01:30.564Z,4.93
2018-10-07T06:04:39.139Z,2.80
2018-10-07T06:07:07.314Z,3.87
2018-10-07T06:09:36.399Z,3.13
2018-10-07T06:12:04.603Z,4.43
2018-10-07T06:14:44.313Z,3.93
2018-10-07T06:17:12.476Z,4.60
2018-10-07T06:19:40.643Z,4.80
2018-10-07T06:22:08.806Z,3.67
2018-10-07T06:24:36.983Z,4.53
2018-10-07T06:27:06.267Z,3.10
2018-10-07T06:29:34.419Z,5.23
2018-10-07T06:32:02.583Z,4.93
2018-10-07T06:34:30.739Z,9.30
2018-10-07T06:36:58.898Z,5.30
2018-10-07T06:39:27.059Z,6.23
2018-10-07T06:41:55.255Z,7.50
2018-10-07T06:44:23.467Z,4.33
2018-10-07T06:46:51.685Z,4.77
2018-10-07T06:49:20.139Z,5.30
2018-10-07T06:51:48.515Z,4.70
2018-10-07T06:54:16.678Z,3.57
2018-10-07T06:56:44.862Z,4.27
2018-10-07T06:59:13.027Z,6.73
2018-10-07T07:01:41.202Z,4.83
2018-10-07T07:04:09.370Z,3.47
2018-10-07T07:06:37.637Z,4.57
2018-10-07T07:09:07.622Z,3.03
2018-10-07T07:11:36.072Z,5.97
2018-10-07T07:14:04.258Z,4.77
2018-10-07T07:16:32.591Z,3.93
2018-10-07T07:19:00.758Z,4.87
2018-10-07T07:21:28.974Z,4.13
2018-10-07T07:23:57.192Z,5.10
2018-10-07T07:26:25.599Z,5.70
2018-10-07T07:28:53.783Z,5.23
2018-10-07T07:31:21.992Z,6.10
2018-10-07T07:33:50.143Z,7.00
2018-10-07T07:36:18.327Z,7.00
2018-10-07T07:38:46.499Z,8.93
2018-10-07T07:41:14.677Z,7.17
2018-10-07T07:43:42.871Z,7.00
2018-10-07T07:46:11.051Z,11.20
2018-10-07T07:48:39.343Z,7.33
2018-10-07T07:51:07.727Z,7.83
2018-10-07T07:53:35.908Z,7.80
2018-10-07T07:56:04.071Z,4.80
2018-10-07T07:58:32.279Z,5.33
2018-10-07T08:01:00.480Z,5.03
2018-10-07T08:03:28.667Z,5.63
2018-10-07T08:05:56.838Z,4.50
2018-10-07T08:08:25.033Z,7.27
2018-10-07T08:10:53.239Z,4.77
2018-10-07T08:13:21.686Z,4.90
2018-10-07T08:15:49.859Z,3.83
2018-10-07T08:18:18.046Z,4.30
2018-10-07T08:20:46.226Z,3.23
2018-10-07T08:23:14.431Z,4.40
2018-10-07T08:25:42.579Z,3.07
2018-10-07T08:28:10.754Z,3.67
2018-10-07T08:30:39.094Z,3.60
2018-10-07T08:33:07.327Z,3.83
2018-10-07T08:35:35.532Z,3.43
2018-10-07T08:38:03.744Z,4.17
2018-10-07T08:40:31.964Z,3.57
2018-10-07T08:43:00.143Z,4.23
2018-10-07T08:45:28.311Z,4.03
2018-10-07T08:47:56.502Z,7.63
2018-10-07T08:50:24.675Z,3.90
2018-10-07T08:52:52.855Z,4.97
2018-10-07T08:55:21.027Z,4.27
2018-10-07T08:57:49.199Z,3.80
2018-10-07T09:00:17.394Z,3.70
2018-10-07T09:02:45.562Z,4.00
2018-10-07T09:05:13.735Z,3.10
2018-10-07T09:07:41.909Z,4.57
2018-10-07T09:10:10.083Z,4.63
2018-10-07T09:12:38.290Z,3.63
2018-10-07T09:15:06.532Z,3.93
2018-10-07T09:17:34.749Z,3.97
2018-10-07T09:20:03.055Z,2.93
2018-10-07T09:22:31.226Z,3.97
2018-10-07T09:24:59.404Z,2.50
2018-10-07T09:27:27.613Z,6.47
2018-10-07T09:29:55.792Z,3.90
2018-10-07T09:32:24.091Z,3.27
2018-10-07T09:34:52.314Z,4.20
2018-10-07T09:37:20.482Z,3.10
2018-10-07T09:39:48.699Z,3.70
2018-10-07T09:42:17.234Z,2.77
2018-10-07T09:44:45.626Z,3.37
2018-10-07T09:47:13.785Z,2.83
2018-10-07T09:49:41.947Z,3.87
2018-10-07T09:52:10.118Z,3.00
2018-10-07T09:54:38.327Z,3.40
2018-10-07T09:57:06.764Z,3.83
2018-10-07T09:59:34.924Z,3.33
2018-10-07T10:02:03.082Z,3.00
2018-10-07T10:04:31.317Z,3.13
2018-10-07T10:06:59.448Z,4.00
2018-10-07T10:09:27.578Z,8.57
2018-10-07T10:11:55.731Z,2.60
2018-10-07T10:14:23.897Z,2.80
2018-10-07T10:16:55.342Z,4.60
2018-10-07T10:19:36.059Z,3.10
2018-10-07T10:22:11.310Z,3.77
2018-10-07T10:24:49.116Z,4.63
2018-10-07T10:27:31.306Z,2.83
2018-10-07T10:30:04.966Z,5.20
2018-10-07T10:32:34.850Z,6.03
2018-10-07T10:35:12.663Z,5.10
2018-10-07T10:38:50.581Z,5.23
2018-10-07T10:41:24.207Z,5.37
2018-10-07T10:43:57.657Z,3.90
2018-10-07T10:46:32.192Z,3.90
2018-10-07T10:49:06.195Z,4.90
2018-10-07T10:51:50.139Z,4.67
2018-10-07T10:54:23.246Z,5.23
2018-10-07T10:56:59.046Z,3.73
2018-10-07T10:59:34.100Z,4.97
2018-10-07T11:02:27.895Z,4.55
2018-10-07T11:05:12.463Z,4.10
2018-10-07T11:07:59.216Z,4.87
2018-10-07T11:10:39.420Z,3.80
2018-10-07T11:15:22.155Z,5.80
2018-10-07T11:18:04.046Z,6.27
2018-10-07T11:23:22.411Z,5.07
2018-10-07T11:26:00.775Z,5.43
2018-10-07T11:28:44.427Z,3.67
2018-10-07T11:31:24.815Z,3.33
2018-10-07T11:35:33.172Z,4.57
2018-10-07T11:38:07.465Z,4.53
2018-10-07T11:41:00.803Z,5.87
2018-10-07T11:43:37.364Z,4.13
2018-10-07T11:46:17.728Z,4.10
2018-10-07T11:48:55.832Z,3.57
2018-10-07T11:51:34.804Z,7.90
2018-10-07T11:54:08.750Z,4.50
2018-10-07T11:56:37.661Z,3.90
2018-10-07T11:59:06.131Z,4.17
2018-10-07T12:01:34.709Z,3.90
2018-10-07T12:04:03.291Z,4.27
2018-10-07T12:06:31.700Z,4.57
2018-10-07T12:08:59.887Z,3.37
2018-10-07T12:11:28.363Z,4.13
2018-10-07T12:13:56.542Z,4.30
2018-10-07T12:16:24.854Z,5.03
2018-10-07T12:18:53.022Z,4.13
2018-10-07T12:21:21.206Z,5.57
2018-10-07T12:23:49.400Z,6.20
2018-10-07T12:26:17.591Z,3.53
2018-10-07T12:28:45.835Z,4.20
2018-10-07T12:31:13.967Z,4.30
2018-10-07T12:33:42.168Z,4.43
2018-10-07T12:36:10.384Z,4.13
2018-10-07T12:38:38.589Z,4.13
2018-10-07T12:41:06.825Z,5.13
2018-10-07T12:43:35.021Z,5.40
2018-10-07T12:46:03.201Z,4.53
2018-10-07T12:48:31.411Z,5.50
2018-10-07T12:50:59.591Z,3.10
2018-10-07T12:53:27.791Z,4.13
2018-10-07T12:55:55.994Z,3.47
2018-10-07T12:58:24.218Z,6.03
2018-10-07T13:00:52.375Z,5.30
2018-10-07T13:03:20.550Z,3.90
2018-10-07T13:05:48.714Z,3.60
2018-10-07T13:08:16.898Z,3.27
2018-10-07T13:10:45.067Z,3.87
2018-10-07T13:13:13.523Z,8.30
2018-10-07T13:15:42.059Z,3.57
2018-10-07T13:18:10.224Z,4.03
2018-10-07T13:20:38.424Z,4.07
2018-10-07T13:23:06.603Z,7.07
2018-10-07T13:25:34.774Z,3.97
2018-10-07T13:28:03.174Z,3.03
2018-10-07T13:30:31.359Z,2.80
2018-10-07T13:32:59.532Z,3.17
2018-10-07T13:35:27.740Z,2.87
2018-10-07T13:37:56.116Z,3.60
2018-10-07T13:40:24.353Z,6.20
2018-10-07T13:42:52.580Z,3.93
2018-10-07T13:45:20.772Z,4.20
2018-10-07T13:47:48.942Z,5.70
2018-10-07T13:50:17.122Z,4.47
2018-10-07T13:52:45.291Z,3.70
2018-10-07T13:55:13.507Z,3.40
2018-10-07T13:57:41.711Z,3.23
2018-10-07T14:00:10.011Z,3.20
2018-10-07T14:02:38.175Z,3.60
2018-10-07T14:05:06.511Z,4.07
2018-10-07T14:07:34.678Z,4.63
2018-10-07T14:10:02.858Z,3.57
2018-10-07T14:12:31.014Z,5.20
2018-10-07T14:14:59.200Z,3.43
2018-10-07T14:17:27.363Z,3.17
2018-10-07T14:19:55.537Z,3.33
2018-10-07T14:22:23.703Z,3.20
2018-10-07T14:24:51.895Z,2.70
2018-10-07T14:27:20.074Z,2.40
2018-10-07T14:29:48.247Z,3.30
2018-10-07T14:32:16.423Z,2.70
2018-10-07T14:34:44.587Z,3.17
2018-10-07T14:37:12.759Z,3.33
2018-10-07T14:39:40.927Z,4.10
2018-10-07T14:42:09.131Z,2.80
2018-10-07T14:44:37.376Z,2.97
2018-10-07T14:47:05.996Z,3.50
2018-10-07T14:49:34.235Z,3.60
2018-10-07T14:52:02.471Z,2.77
2018-10-07T14:54:30.660Z,3.20
2018-10-07T14:56:58.873Z,2.67
2018-10-07T14:59:27.075Z,3.60
2018-10-07T15:01:55.266Z,3.40
2018-10-07T15:04:23.463Z,2.33
2018-10-07T15:06:51.650Z,3.00
2018-10-07T15:09:19.843Z,2.40
2018-10-07T15:11:48.039Z,4.00
2018-10-07T15:14:16.219Z,2.60
2018-10-07T15:16:44.402Z,3.30
2018-10-07T15:19:12.583Z,4.90
2018-10-07T15:21:40.816Z,2.67
2018-10-07T15:24:08.964Z,3.30
2018-10-07T15:26:37.153Z,3.60
2018-10-07T15:29:05.335Z,2.80
2018-10-07T15:31:33.521Z,2.70
2018-10-07T15:34:01.698Z,2.13
2018-10-07T15:36:29.888Z,2.93
2018-10-07T15:38:58.071Z,3.50
2018-10-07T15:41:26.270Z,3.00
2018-10-07T15:43:54.451Z,2.30
2018-10-07T15:46:22.635Z,5.20
2018-10-07T15:48:50.818Z,2.87
2018-10-07T15:51:19.011Z,3.40
2018-10-07T15:53:47.195Z,3.40
2018-10-07T15:56:15.400Z,2.37
2018-10-07T15:58:43.616Z,3.17
2018-10-07T16:01:11.833Z,3.33
2018-10-07T16:03:40.068Z,4.47
2018-10-07T16:06:08.300Z,3.13
2018-10-07T16:08:36.501Z,4.03
2018-10-07T16:11:04.814Z,2.90
2018-10-07T16:13:32.994Z,3.20
2018-10-07T16:16:01.171Z,3.10
2018-10-07T16:18:29.451Z,3.70
2018-10-07T16:20:57.602Z,2.67
2018-10-07T16:23:26.048Z,3.30
2018-10-07T16:25:54.333Z,3.33
2018-10-07T16:28:22.696Z,3.10
2018-10-07T16:30:51.275Z,3.27
2018-10-07T16:33:19.460Z,3.23
2018-10-07T16:35:47.635Z,2.27
2018-10-07T16:38:15.823Z,2.40
2018-10-07T16:40:44.012Z,2.57
2018-10-07T16:43:12.203Z,3.30
2018-10-07T16:45:40.390Z,3.37
2018-10-07T16:48:08.608Z,3.10
2018-10-07T16:50:36.796Z,3.83
2018-10-07T16:53:04.991Z,2.90
2018-10-07T16:55:33.174Z,3.87
2018-10-07T16:58:01.370Z,2.50
2018-10-07T17:00:29.551Z,3.43
2018-10-07T17:02:57.739Z,3.20
2018-10-07T17:05:25.923Z,3.10
2018-10-07T17:07:54.118Z,2.10
2018-10-07T17:10:22.294Z,2.83
2018-10-07T17:12:50.559Z,2.30
2018-10-07T17:15:18.700Z,3.70
2018-10-07T17:17:46.917Z,2.80
2018-10-07T17:20:15.158Z,3.53
2018-10-07T17:22:43.409Z,2.80
2018-10-07T17:25:11.629Z,4.13
2018-10-07T17:27:39.988Z,3.50
2018-10-07T17:30:08.272Z,4.10
2018-10-07T17:32:36.559Z,3.73
2018-10-07T17:35:04.767Z,4.10
2018-10-07T17:37:32.951Z,4.10
2018-10-07T17:40:01.199Z,4.57
2018-10-07T17:42:29.559Z,4.43
2018-10-07T17:44:57.731Z,4.33
2018-10-07T17:47:25.935Z,5.67
2018-10-07T17:49:54.688Z,4.47
2018-10-07T17:52:23.015Z,4.50
2018-10-07T17:54:51.251Z,6.10
2018-10-07T17:57:19.375Z,5.63
2018-10-07T17:59:47.565Z,7.43
2018-10-07T18:02:15.750Z,6.07
2018-10-07T18:04:45.552Z,6.80
2018-10-07T18:07:13.791Z,4.57
2018-10-07T18:09:42.258Z,6.33
2018-10-07T18:12:10.908Z,6.40
2018-10-07T18:14:39.544Z,4.97
2018-10-07T18:17:07.777Z,5.70
2018-10-07T18:19:36.010Z,4.30
2018-10-07T18:22:04.242Z,5.27
2018-10-07T18:24:32.492Z,5.77
2018-10-07T18:27:00.755Z,5.67
2018-10-07T18:29:28.988Z,6.10
2018-10-07T18:31:57.184Z,6.13
2018-10-07T18:34:25.430Z,5.83
2018-10-07T18:36:53.673Z,7.83
2018-10-07T18:39:21.923Z,5.73
2018-10-07T18:41:50.120Z,5.53
2018-10-07T18:44:18.376Z,5.63
2018-10-07T18:46:46.637Z,7.20
2018-10-07T18:49:15.094Z,7.33
2018-10-07T18:51:43.172Z,8.53
2018-10-07T18:54:11.712Z,7.07
2018-10-07T18:56:41.079Z,7.70
2018-10-07T18:59:10.520Z,6.77
2018-10-07T19:01:38.789Z,8.10
2018-10-07T19:04:07.060Z,6.57
2018-10-07T19:06:35.812Z,7.07
2018-10-07T19:09:05.617Z,7.43
2018-10-07T19:11:33.847Z,6.97
2018-10-07T19:14:02.121Z,5.43
2018-10-07T19:16:30.267Z,5.93
2018-10-07T19:18:58.520Z,6.50
2018-10-07T19:21:26.864Z,6.57
2018-10-07T19:23:55.006Z,7.10
2018-10-07T19:26:23.638Z,6.93
2018-10-07T19:28:52.245Z,4.83
2018-10-07T19:31:20.483Z,6.60
2018-10-07T19:33:48.714Z,5.30
2018-10-07T19:36:16.899Z,6.37
2018-10-07T19:38:45.107Z,5.33
2018-10-07T19:41:13.474Z,4.93
2018-10-07T19:43:41.742Z,4.33
2018-10-07T19:46:09.959Z,5.70
2018-10-07T19:48:38.462Z,4.50
2018-10-07T19:51:06.890Z,7.37
2018-10-07T19:53:35.187Z,6.10
2018-10-07T19:56:03.393Z,5.63
2018-10-07T19:58:31.635Z,6.57
2018-10-07T20:00:59.905Z,5.50
2018-10-07T20:03:28.113Z,6.40
2018-10-07T20:05:56.339Z,5.80
2018-10-07T20:08:24.532Z,6.27
2018-10-07T20:10:52.733Z,5.33
2018-10-07T20:13:20.980Z,6.43
2018-10-07T20:15:49.164Z,6.97
2018-10-07T20:18:17.432Z,6.23
2018-10-07T20:20:45.637Z,5.77
2018-10-07T20:23:13.851Z,6.97
2018-10-07T20:25:42.090Z,6.50
2018-10-07T20:28:10.317Z,6.83
2018-10-07T20:30:39.180Z,7.57
2018-10-07T20:33:07.435Z,8.33
2018-10-07T20:35:35.669Z,7.17
2018-10-07T20:38:03.891Z,7.33
2018-10-07T20:40:32.255Z,6.90
2018-10-07T20:43:00.492Z,7.00
2018-10-07T20:45:28.768Z,6.00
2018-10-07T20:47:56.970Z,6.90
2018-10-07T20:50:25.590Z,10.57
2018-10-07T20:52:53.697Z,8.87
2018-10-07T20:55:21.895Z,8.03
2018-10-07T20:57:50.082Z,8.77
2018-10-07T21:00:18.550Z,8.10
2018-10-07T21:02:46.866Z,8.30
2018-10-07T21:05:14.939Z,9.10
2018-10-07T21:07:43.127Z,9.60
2018-10-07T21:10:11.299Z,8.20
2018-10-07T21:12:39.511Z,5.53
2018-10-07T21:15:07.713Z,8.77
2018-10-07T21:17:35.929Z,6.20
2018-10-07T21:20:04.095Z,6.93
2018-10-07T21:22:32.452Z,7.33
2018-10-07T21:25:00.994Z,7.53
2018-10-07T21:27:29.175Z,6.90
2018-10-07T21:29:57.352Z,7.37
2018-10-07T21:32:25.655Z,7.23
2018-10-07T21:34:53.822Z,7.93
2018-10-07T21:37:22.006Z,6.73
2018-10-07T21:39:50.326Z,7.03
2018-10-07T21:42:18.546Z,7.43
2018-10-07T21:44:46.736Z,8.10
2018-10-07T21:47:14.936Z,7.60
2018-10-07T21:49:43.144Z,7.40
2018-10-07T21:52:11.331Z,6.70
2018-10-07T21:54:39.643Z,5.63
2018-10-07T21:57:07.843Z,7.23
2018-10-07T21:59:36.031Z,7.27
2018-10-07T22:02:04.298Z,7.50
2018-10-07T22:04:32.995Z,6.37
2018-10-07T22:07:01.195Z,7.57
2018-10-07T22:09:29.387Z,6.73
2018-10-07T22:11:57.563Z,7.37
2018-10-07T22:14:25.747Z,7.33
2018-10-07T22:16:53.943Z,7.07
2018-10-07T22:19:22.127Z,7.50
2018-10-07T22:21:50.320Z,7.27
2018-10-07T22:24:18.499Z,6.30
2018-10-07T22:26:46.687Z,6.80
2018-10-07T22:29:14.875Z,7.00
2018-10-07T22:31:43.063Z,7.80
2018-10-07T22:34:11.264Z,6.30
2018-10-07T22:36:39.447Z,6.37
2018-10-07T22:39:08.155Z,6.40
2018-10-07T22:41:36.631Z,6.80
2018-10-07T22:44:05.015Z,7.87
2018-10-07T22:46:33.190Z,7.73
2018-10-07T22:49:01.387Z,7.63
2018-10-07T22:51:29.602Z,10.10
2018-10-07T22:53:57.810Z,8.40
2018-10-07T22:56:26.028Z,10.20
2018-10-07T22:58:54.219Z,11.07
2018-10-07T23:01:22.410Z,13.43
2018-10-07T23:03:50.600Z,16.87
2018-10-07T23:06:18.786Z,17.20
2018-10-07T23:08:46.983Z,15.47
2018-10-07T23:11:15.170Z,16.90
2018-10-07T23:13:43.362Z,15.10
2018-10-07T23:16:11.555Z,17.50
2018-10-07T23:18:39.748Z,16.80
2018-10-07T23:21:07.933Z,17.20
2018-10-07T23:23:36.131Z,17.33
2018-10-07T23:26:04.322Z,16.63
2018-10-07T23:28:32.522Z,17.03
2018-10-07T23:31:00.711Z,16.60
2018-10-07T23:33:28.906Z,14.83
2018-10-07T23:35:57.099Z,18.60
2018-10-07T23:38:25.283Z,16.87
2018-10-07T23:40:54.727Z,18.20
2018-10-07T23:43:22.908Z,21.47
2018-10-07T23:45:51.118Z,17.97
2018-10-07T23:48:19.344Z,13.43
2018-10-07T23:50:47.564Z,17.00
2018-10-07T23:53:15.779Z,16.63
2018-10-07T23:55:43.970Z,15.43
2018-10-07T23:58:12.254Z,15.63
